sensor_id;sensor_type;location;lat;lon;timestamp;P1;durP1;ratioP1;P2;durP2;ratioP2
45316;SDS011;31053;55.870;37.592;2022-08-25T00:02:53;26.00;;;7.47;;
45316;SDS011;31053;55.870;37.592;2022-08-25T00:05:57;16.33;;;7.78;;
45316;SDS011;31053;55.870;37.592;2022-08-25T00:09:02;25.30;;;10.07;;
45316;SDS011;31053;55.870;37.592;2022-08-25T00:12:08;16.80;;;8.75;;
45316;SDS011;31053;55.870;37.592;2022-08-25T00:15:12;21.55;;;7.60;;
45316;SDS011;31053;55.870;37.592;2022-08-25T00:18:17;17.80;;;8.80;;
45316;SDS011;31053;55.870;37.592;2022-08-25T00:21:22;25.85;;;10.40;;
45316;SDS011;31053;55.870;37.592;2022-08-25T00:24:27;20.50;;;8.20;;
45316;SDS011;31053;55.870;37.592;2022-08-25T00:27:32;15.45;;;7.82;;
45316;SDS011;31053;55.870;37.592;2022-08-25T00:30:37;19.50;;;6.72;;
45316;SDS011;31053;55.870;37.592;2022-08-25T00:33:42;15.98;;;6.40;;
45316;SDS011;31053;55.870;37.592;2022-08-25T00:36:48;15.07;;;6.95;;
45316;SDS011;31053;55.870;37.592;2022-08-25T00:39:54;24.42;;;8.27;;
45316;SDS011;31053;55.870;37.592;2022-08-25T00:43:00;15.68;;;6.22;;
45316;SDS011;31053;55.870;37.592;2022-08-25T00:46:04;20.85;;;8.50;;
45316;SDS011;31053;55.870;37.592;2022-08-25T00:52:36;17.20;;;7.50;;
45316;SDS011;31053;55.870;37.592;2022-08-25T00:55:43;19.63;;;7.97;;
45316;SDS011;31053;55.870;37.592;2022-08-25T00:58:47;13.00;;;6.88;;
45316;SDS011;31053;55.870;37.592;2022-08-25T01:01:53;20.92;;;6.93;;
45316;SDS011;31053;55.870;37.592;2022-08-25T01:04:57;17.20;;;6.57;;
45316;SDS011;31053;55.870;37.592;2022-08-25T01:08:02;21.27;;;7.32;;
45316;SDS011;31053;55.870;37.592;2022-08-25T01:11:10;18.38;;;6.78;;
45316;SDS011;31053;55.870;37.592;2022-08-25T01:14:16;17.73;;;6.75;;
45316;SDS011;31053;55.870;37.592;2022-08-25T01:17:22;19.30;;;6.15;;
45316;SDS011;31053;55.870;37.592;2022-08-25T01:20:31;20.40;;;6.30;;
45316;SDS011;31053;55.870;37.592;2022-08-25T01:23:37;27.23;;;8.10;;
45316;SDS011;31053;55.870;37.592;2022-08-25T01:26:41;18.42;;;9.88;;
45316;SDS011;31053;55.870;37.592;2022-08-25T01:29:46;26.10;;;10.27;;
45316;SDS011;31053;55.870;37.592;2022-08-25T01:32:51;19.58;;;8.60;;
45316;SDS011;31053;55.870;37.592;2022-08-25T01:35:55;27.63;;;8.88;;
45316;SDS011;31053;55.870;37.592;2022-08-25T01:39:00;19.88;;;8.88;;
45316;SDS011;31053;55.870;37.592;2022-08-25T01:45:09;18.48;;;8.32;;
45316;SDS011;31053;55.870;37.592;2022-08-25T01:48:14;24.73;;;8.77;;
45316;SDS011;31053;55.870;37.592;2022-08-25T01:51:20;16.88;;;8.93;;
45316;SDS011;31053;55.870;37.592;2022-08-25T01:54:27;25.88;;;9.55;;
45316;SDS011;31053;55.870;37.592;2022-08-25T01:57:32;25.85;;;10.82;;
45316;SDS011;31053;55.870;37.592;2022-08-25T02:00:36;23.02;;;10.57;;
45316;SDS011;31053;55.870;37.592;2022-08-25T02:03:42;26.15;;;10.93;;
45316;SDS011;31053;55.870;37.592;2022-08-25T02:06:49;23.67;;;11.40;;
45316;SDS011;31053;55.870;37.592;2022-08-25T02:09:53;31.35;;;12.57;;
45316;SDS011;31053;55.870;37.592;2022-08-25T02:12:57;25.55;;;9.98;;
45316;SDS011;31053;55.870;37.592;2022-08-25T02:16:02;29.42;;;12.68;;
45316;SDS011;31053;55.870;37.592;2022-08-25T02:19:08;30.92;;;15.82;;
45316;SDS011;31053;55.870;37.592;2022-08-25T02:25:19;23.90;;;13.20;;
45316;SDS011;31053;55.870;37.592;2022-08-25T02:28:24;31.30;;;14.40;;
45316;SDS011;31053;55.870;37.592;2022-08-25T02:31:29;45.33;;;14.48;;
45316;SDS011;31053;55.870;37.592;2022-08-25T02:34:34;41.17;;;16.83;;
45316;SDS011;31053;55.870;37.592;2022-08-25T02:37:38;34.78;;;15.43;;
45316;SDS011;31053;55.870;37.592;2022-08-25T02:40:42;33.13;;;16.95;;
45316;SDS011;31053;55.870;37.592;2022-08-25T02:43:47;33.08;;;16.15;;
45316;SDS011;31053;55.870;37.592;2022-08-25T02:46:52;35.58;;;15.88;;
45316;SDS011;31053;55.870;37.592;2022-08-25T02:49:57;35.53;;;16.00;;
45316;SDS011;31053;55.870;37.592;2022-08-25T02:53:01;33.63;;;16.55;;
45316;SDS011;31053;55.870;37.592;2022-08-25T02:56:07;37.38;;;16.52;;
45316;SDS011;31053;55.870;37.592;2022-08-25T02:59:13;32.42;;;16.20;;
45316;SDS011;31053;55.870;37.592;2022-08-25T03:02:21;34.38;;;18.02;;
45316;SDS011;31053;55.870;37.592;2022-08-25T03:05:25;45.33;;;19.98;;
45316;SDS011;31053;55.870;37.592;2022-08-25T03:08:30;47.35;;;22.33;;
45316;SDS011;31053;55.870;37.592;2022-08-25T03:11:34;42.40;;;20.75;;
45316;SDS011;31053;55.870;37.592;2022-08-25T03:17:45;38.25;;;17.15;;
45316;SDS011;31053;55.870;37.592;2022-08-25T03:20:52;37.03;;;18.45;;
45316;SDS011;31053;55.870;37.592;2022-08-25T03:23:57;38.33;;;18.65;;
45316;SDS011;31053;55.870;37.592;2022-08-25T03:27:06;37.40;;;19.10;;
45316;SDS011;31053;55.870;37.592;2022-08-25T03:30:11;41.38;;;20.85;;
45316;SDS011;31053;55.870;37.592;2022-08-25T03:33:16;40.78;;;19.23;;
45316;SDS011;31053;55.870;37.592;2022-08-25T03:36:20;38.45;;;19.00;;
45316;SDS011;31053;55.870;37.592;2022-08-25T03:39:25;34.42;;;19.33;;
45316;SDS011;31053;55.870;37.592;2022-08-25T03:42:29;36.10;;;18.95;;
45316;SDS011;31053;55.870;37.592;2022-08-25T03:45:38;40.22;;;18.65;;
45316;SDS011;31053;55.870;37.592;2022-08-25T03:48:44;39.72;;;18.70;;
45316;SDS011;31053;55.870;37.592;2022-08-25T03:51:49;44.00;;;20.73;;
45316;SDS011;31053;55.870;37.592;2022-08-25T03:54:54;44.63;;;19.90;;
45316;SDS011;31053;55.870;37.592;2022-08-25T03:57:59;44.85;;;20.17;;
45316;SDS011;31053;55.870;37.592;2022-08-25T04:01:04;40.08;;;18.50;;
45316;SDS011;31053;55.870;37.592;2022-08-25T04:04:09;32.70;;;17.80;;
45316;SDS011;31053;55.870;37.592;2022-08-25T04:07:15;35.65;;;18.00;;
45316;SDS011;31053;55.870;37.592;2022-08-25T04:10:20;51.53;;;20.27;;
45316;SDS011;31053;55.870;37.592;2022-08-25T04:13:24;45.85;;;19.20;;
45316;SDS011;31053;55.870;37.592;2022-08-25T04:16:30;35.88;;;16.75;;
45316;SDS011;31053;55.870;37.592;2022-08-25T04:19:35;44.47;;;19.30;;
45316;SDS011;31053;55.870;37.592;2022-08-25T04:22:40;39.88;;;19.02;;
45316;SDS011;31053;55.870;37.592;2022-08-25T04:25:44;42.40;;;21.15;;
45316;SDS011;31053;55.870;37.592;2022-08-25T04:28:49;42.10;;;20.98;;
45316;SDS011;31053;55.870;37.592;2022-08-25T04:31:54;44.15;;;19.45;;
45316;SDS011;31053;55.870;37.592;2022-08-25T04:34:58;42.22;;;21.58;;
45316;SDS011;31053;55.870;37.592;2022-08-25T04:38:03;40.30;;;21.48;;
45316;SDS011;31053;55.870;37.592;2022-08-25T04:41:08;39.90;;;21.25;;
45316;SDS011;31053;55.870;37.592;2022-08-25T04:44:14;54.45;;;21.17;;
45316;SDS011;31053;55.870;37.592;2022-08-25T04:47:19;52.35;;;22.77;;
45316;SDS011;31053;55.870;37.592;2022-08-25T04:50:24;50.47;;;22.98;;
45316;SDS011;31053;55.870;37.592;2022-08-25T04:53:28;49.90;;;23.10;;
45316;SDS011;31053;55.870;37.592;2022-08-25T04:56:32;57.90;;;23.30;;
45316;SDS011;31053;55.870;37.592;2022-08-25T04:59:37;45.05;;;22.27;;
45316;SDS011;31053;55.870;37.592;2022-08-25T05:02:42;47.55;;;22.10;;
45316;SDS011;31053;55.870;37.592;2022-08-25T05:05:47;47.75;;;22.63;;
45316;SDS011;31053;55.870;37.592;2022-08-25T05:08:51;44.15;;;21.20;;
45316;SDS011;31053;55.870;37.592;2022-08-25T05:11:56;47.20;;;23.27;;
45316;SDS011;31053;55.870;37.592;2022-08-25T05:15:00;39.75;;;21.20;;
45316;SDS011;31053;55.870;37.592;2022-08-25T05:18:25;44.30;;;21.08;;
45316;SDS011;31053;55.870;37.592;2022-08-25T05:21:33;38.97;;;17.40;;
45316;SDS011;31053;55.870;37.592;2022-08-25T05:24:37;45.22;;;16.75;;
45316;SDS011;31053;55.870;37.592;2022-08-25T05:27:42;44.20;;;19.52;;
45316;SDS011;31053;55.870;37.592;2022-08-25T05:30:47;59.55;;;20.58;;
45316;SDS011;31053;55.870;37.592;2022-08-25T05:33:54;50.33;;;19.42;;
45316;SDS011;31053;55.870;37.592;2022-08-25T05:36:59;31.55;;;14.95;;
45316;SDS011;31053;55.870;37.592;2022-08-25T05:40:06;48.28;;;17.70;;
45316;SDS011;31053;55.870;37.592;2022-08-25T05:43:12;55.37;;;18.37;;
45316;SDS011;31053;55.870;37.592;2022-08-25T05:46:18;37.97;;;15.45;;
45316;SDS011;31053;55.870;37.592;2022-08-25T05:49:24;37.00;;;16.58;;
45316;SDS011;31053;55.870;37.592;2022-08-25T05:52:29;44.72;;;16.20;;
45316;SDS011;31053;55.870;37.592;2022-08-25T05:55:34;45.28;;;15.63;;
45316;SDS011;31053;55.870;37.592;2022-08-25T05:58:39;53.03;;;15.50;;
45316;SDS011;31053;55.870;37.592;2022-08-25T06:01:44;45.80;;;16.13;;
45316;SDS011;31053;55.870;37.592;2022-08-25T06:05:26;42.72;;;15.15;;
45316;SDS011;31053;55.870;37.592;2022-08-25T06:08:30;30.50;;;13.20;;
45316;SDS011;31053;55.870;37.592;2022-08-25T06:11:37;43.28;;;15.32;;
45316;SDS011;31053;55.870;37.592;2022-08-25T06:14:43;44.30;;;19.00;;
45316;SDS011;31053;55.870;37.592;2022-08-25T06:17:48;44.73;;;14.37;;
45316;SDS011;31053;55.870;37.592;2022-08-25T06:20:53;39.35;;;14.00;;
45316;SDS011;31053;55.870;37.592;2022-08-25T06:23:57;27.55;;;12.38;;
45316;SDS011;31053;55.870;37.592;2022-08-25T06:27:02;35.70;;;11.52;;
45316;SDS011;31053;55.870;37.592;2022-08-25T06:30:08;21.95;;;8.70;;
45316;SDS011;31053;55.870;37.592;2022-08-25T06:33:14;34.42;;;10.63;;
45316;SDS011;31053;55.870;37.592;2022-08-25T06:36:19;36.28;;;11.75;;
45316;SDS011;31053;55.870;37.592;2022-08-25T06:39:23;31.00;;;9.93;;
45316;SDS011;31053;55.870;37.592;2022-08-25T06:42:31;23.42;;;10.55;;
45316;SDS011;31053;55.870;37.592;2022-08-25T06:45:36;37.55;;;9.98;;
45316;SDS011;31053;55.870;37.592;2022-08-25T06:48:41;24.83;;;9.38;;
45316;SDS011;31053;55.870;37.592;2022-08-25T06:51:46;20.70;;;7.43;;
45316;SDS011;31053;55.870;37.592;2022-08-25T06:54:51;13.23;;;6.07;;
45316;SDS011;31053;55.870;37.592;2022-08-25T06:57:57;13.77;;;5.43;;
45316;SDS011;31053;55.870;37.592;2022-08-25T07:04:15;11.32;;;4.80;;
45316;SDS011;31053;55.870;37.592;2022-08-25T07:07:20;7.65;;;4.18;;
45316;SDS011;31053;55.870;37.592;2022-08-25T07:10:25;10.07;;;5.03;;
45316;SDS011;31053;55.870;37.592;2022-08-25T07:13:30;10.70;;;4.50;;
45316;SDS011;31053;55.870;37.592;2022-08-25T07:16:34;12.75;;;4.40;;
45316;SDS011;31053;55.870;37.592;2022-08-25T07:19:40;6.20;;;3.90;;
45316;SDS011;31053;55.870;37.592;2022-08-25T07:22:48;8.07;;;4.10;;
45316;SDS011;31053;55.870;37.592;2022-08-25T07:25:53;18.10;;;5.20;;
45316;SDS011;31053;55.870;37.592;2022-08-25T07:28:58;15.80;;;5.90;;
45316;SDS011;31053;55.870;37.592;2022-08-25T07:32:03;10.75;;;5.20;;
45316;SDS011;31053;55.870;37.592;2022-08-25T07:35:09;8.52;;;3.80;;
45316;SDS011;31053;55.870;37.592;2022-08-25T07:38:26;13.98;;;5.07;;
45316;SDS011;31053;55.870;37.592;2022-08-25T07:41:35;13.25;;;4.95;;
45316;SDS011;31053;55.870;37.592;2022-08-25T07:44:41;13.25;;;4.75;;
45316;SDS011;31053;55.870;37.592;2022-08-25T07:48:01;7.85;;;4.60;;
45316;SDS011;31053;55.870;37.592;2022-08-25T07:51:10;7.75;;;4.47;;
45316;SDS011;31053;55.870;37.592;2022-08-25T07:54:20;21.02;;;5.10;;
45316;SDS011;31053;55.870;37.592;2022-08-25T07:57:26;9.45;;;3.72;;
45316;SDS011;31053;55.870;37.592;2022-08-25T08:00:36;9.00;;;4.03;;
45316;SDS011;31053;55.870;37.592;2022-08-25T08:03:42;9.52;;;3.97;;
45316;SDS011;31053;55.870;37.592;2022-08-25T08:06:46;11.52;;;3.92;;
45316;SDS011;31053;55.870;37.592;2022-08-25T08:09:51;7.85;;;4.20;;
45316;SDS011;31053;55.870;37.592;2022-08-25T08:12:56;8.10;;;4.13;;
45316;SDS011;31053;55.870;37.592;2022-08-25T08:16:01;7.72;;;3.75;;
45316;SDS011;31053;55.870;37.592;2022-08-25T08:19:08;10.15;;;4.90;;
45316;SDS011;31053;55.870;37.592;2022-08-25T08:22:15;14.57;;;4.20;;
45316;SDS011;31053;55.870;37.592;2022-08-25T08:25:19;7.40;;;3.08;;
45316;SDS011;31053;55.870;37.592;2022-08-25T08:28:24;13.68;;;4.05;;
45316;SDS011;31053;55.870;37.592;2022-08-25T08:31:30;9.98;;;4.32;;
45316;SDS011;31053;55.870;37.592;2022-08-25T08:34:35;12.00;;;3.22;;
45316;SDS011;31053;55.870;37.592;2022-08-25T08:37:40;8.10;;;3.72;;
45316;SDS011;31053;55.870;37.592;2022-08-25T08:40:58;10.05;;;3.70;;
45316;SDS011;31053;55.870;37.592;2022-08-25T08:48:00;5.50;;;3.22;;
45316;SDS011;31053;55.870;37.592;2022-08-25T08:51:30;5.22;;;3.15;;
45316;SDS011;31053;55.870;37.592;2022-08-25T08:54:38;3.67;;;2.30;;
45316;SDS011;31053;55.870;37.592;2022-08-25T08:57:45;6.30;;;2.47;;
45316;SDS011;31053;55.870;37.592;2022-08-25T09:00:52;5.05;;;3.25;;
45316;SDS011;31053;55.870;37.592;2022-08-25T09:04:02;8.63;;;5.50;;
45316;SDS011;31053;55.870;37.592;2022-08-25T09:07:21;8.57;;;2.65;;
45316;SDS011;31053;55.870;37.592;2022-08-25T09:10:33;14.03;;;4.03;;
45316;SDS011;31053;55.870;37.592;2022-08-25T09:17:25;7.28;;;2.92;;
45316;SDS011;31053;55.870;37.592;2022-08-25T09:24:27;7.35;;;4.07;;
45316;SDS011;31053;55.870;37.592;2022-08-25T09:31:08;5.18;;;3.10;;
45316;SDS011;31053;55.870;37.592;2022-08-25T09:34:21;5.78;;;4.00;;
45316;SDS011;31053;55.870;37.592;2022-08-25T09:37:33;4.65;;;3.17;;
45316;SDS011;31053;55.870;37.592;2022-08-25T09:40:39;7.53;;;3.60;;
45316;SDS011;31053;55.870;37.592;2022-08-25T09:43:53;5.43;;;2.95;;
45316;SDS011;31053;55.870;37.592;2022-08-25T09:47:04;6.47;;;3.53;;
45316;SDS011;31053;55.870;37.592;2022-08-25T09:50:21;9.63;;;5.15;;
45316;SDS011;31053;55.870;37.592;2022-08-25T09:53:26;13.10;;;3.67;;
45316;SDS011;31053;55.870;37.592;2022-08-25T09:56:32;8.15;;;3.53;;
45316;SDS011;31053;55.870;37.592;2022-08-25T09:59:37;7.63;;;4.23;;
45316;SDS011;31053;55.870;37.592;2022-08-25T10:02:42;6.88;;;3.72;;
45316;SDS011;31053;55.870;37.592;2022-08-25T10:09:08;7.03;;;2.97;;
45316;SDS011;31053;55.870;37.592;2022-08-25T10:12:20;3.53;;;2.78;;
45316;SDS011;31053;55.870;37.592;2022-08-25T10:15:44;5.07;;;2.58;;
45316;SDS011;31053;55.870;37.592;2022-08-25T10:22:34;14.55;;;3.03;;
45316;SDS011;31053;55.870;37.592;2022-08-25T10:25:39;3.13;;;2.83;;
45316;SDS011;31053;55.870;37.592;2022-08-25T10:38:53;4.05;;;3.25;;
45316;SDS011;31053;55.870;37.592;2022-08-25T10:45:15;11.30;;;2.90;;
45316;SDS011;31053;55.870;37.592;2022-08-25T10:59:02;5.35;;;3.13;;
45316;SDS011;31053;55.870;37.592;2022-08-25T11:05:59;9.27;;;4.35;;
45316;SDS011;31053;55.870;37.592;2022-08-25T11:09:09;3.95;;;3.28;;
45316;SDS011;31053;55.870;37.592;2022-08-25T11:12:22;5.93;;;3.58;;
45316;SDS011;31053;55.870;37.592;2022-08-25T11:15:34;7.68;;;3.85;;
45316;SDS011;31053;55.870;37.592;2022-08-25T11:18:56;27.42;;;4.72;;
45316;SDS011;31053;55.870;37.592;2022-08-25T11:25:31;5.43;;;3.05;;
45316;SDS011;31053;55.870;37.592;2022-08-25T11:32:22;4.65;;;3.22;;
45316;SDS011;31053;55.870;37.592;2022-08-25T11:45:59;13.50;;;3.90;;
45316;SDS011;31053;55.870;37.592;2022-08-25T11:56:31;3.80;;;3.35;;
45316;SDS011;31053;55.870;37.592;2022-08-25T12:02:54;4.60;;;2.92;;
45316;SDS011;31053;55.870;37.592;2022-08-25T12:09:24;8.25;;;3.30;;
45316;SDS011;31053;55.870;37.592;2022-08-25T12:12:36;7.95;;;3.50;;
45316;SDS011;31053;55.870;37.592;2022-08-25T12:16:01;7.75;;;3.38;;
45316;SDS011;31053;55.870;37.592;2022-08-25T12:25:37;6.05;;;3.30;;
45316;SDS011;31053;55.870;37.592;2022-08-25T12:35:38;6.88;;;3.25;;
45316;SDS011;31053;55.870;37.592;2022-08-25T12:38:53;7.60;;;3.70;;
45316;SDS011;31053;55.870;37.592;2022-08-25T12:42:23;9.15;;;3.80;;
45316;SDS011;31053;55.870;37.592;2022-08-25T12:45:38;4.93;;;3.70;;
45316;SDS011;31053;55.870;37.592;2022-08-25T12:49:01;7.68;;;3.85;;
45316;SDS011;31053;55.870;37.592;2022-08-25T12:52:16;5.25;;;3.80;;
45316;SDS011;31053;55.870;37.592;2022-08-25T12:55:30;8.88;;;4.57;;
45316;SDS011;31053;55.870;37.592;2022-08-25T13:16:01;8.23;;;5.22;;
45316;SDS011;31053;55.870;37.592;2022-08-25T13:19:15;4.38;;;3.03;;
45316;SDS011;31053;55.870;37.592;2022-08-25T13:22:27;10.63;;;4.57;;
45316;SDS011;31053;55.870;37.592;2022-08-25T13:25:31;6.00;;;4.03;;
45316;SDS011;31053;55.870;37.592;2022-08-25T13:31:53;6.47;;;3.42;;
45316;SDS011;31053;55.870;37.592;2022-08-25T13:35:16;7.55;;;4.30;;
45316;SDS011;31053;55.870;37.592;2022-08-25T13:38:25;6.57;;;4.38;;
45316;SDS011;31053;55.870;37.592;2022-08-25T13:41:30;8.27;;;4.40;;
45316;SDS011;31053;55.870;37.592;2022-08-25T13:44:35;4.90;;;3.72;;
45316;SDS011;31053;55.870;37.592;2022-08-25T13:47:42;8.98;;;4.47;;
45316;SDS011;31053;55.870;37.592;2022-08-25T13:50:47;8.63;;;4.18;;
45316;SDS011;31053;55.870;37.592;2022-08-25T13:53:56;12.55;;;4.05;;
45316;SDS011;31053;55.870;37.592;2022-08-25T13:57:10;7.88;;;3.80;;
45316;SDS011;31053;55.870;37.592;2022-08-25T14:00:25;5.97;;;4.32;;
45316;SDS011;31053;55.870;37.592;2022-08-25T14:03:33;8.13;;;5.05;;
45316;SDS011;31053;55.870;37.592;2022-08-25T14:06:43;12.73;;;3.72;;
45316;SDS011;31053;55.870;37.592;2022-08-25T14:09:49;6.20;;;3.83;;
45316;SDS011;31053;55.870;37.592;2022-08-25T14:13:10;7.18;;;3.90;;
45316;SDS011;31053;55.870;37.592;2022-08-25T14:16:21;4.28;;;3.70;;
45316;SDS011;31053;55.870;37.592;2022-08-25T14:19:29;6.95;;;3.60;;
45316;SDS011;31053;55.870;37.592;2022-08-25T14:22:33;9.05;;;4.82;;
45316;SDS011;31053;55.870;37.592;2022-08-25T14:25:38;7.53;;;4.03;;
45316;SDS011;31053;55.870;37.592;2022-08-25T14:28:43;5.55;;;3.70;;
45316;SDS011;31053;55.870;37.592;2022-08-25T14:31:48;4.80;;;3.70;;
45316;SDS011;31053;55.870;37.592;2022-08-25T14:34:55;20.20;;;6.10;;
45316;SDS011;31053;55.870;37.592;2022-08-25T14:38:06;10.32;;;4.78;;
45316;SDS011;31053;55.870;37.592;2022-08-25T14:41:13;9.63;;;5.28;;
45316;SDS011;31053;55.870;37.592;2022-08-25T14:44:25;8.13;;;3.63;;
45316;SDS011;31053;55.870;37.592;2022-08-25T14:47:37;7.13;;;4.13;;
45316;SDS011;31053;55.870;37.592;2022-08-25T14:50:42;8.77;;;5.10;;
45316;SDS011;31053;55.870;37.592;2022-08-25T14:54:11;12.43;;;4.83;;
45316;SDS011;31053;55.870;37.592;2022-08-25T14:57:26;7.53;;;4.60;;
45316;SDS011;31053;55.870;37.592;2022-08-25T15:00:31;7.22;;;4.38;;
45316;SDS011;31053;55.870;37.592;2022-08-25T15:03:38;13.20;;;5.40;;
45316;SDS011;31053;55.870;37.592;2022-08-25T15:06:50;7.30;;;4.38;;
45316;SDS011;31053;55.870;37.592;2022-08-25T15:10:01;4.93;;;4.38;;
45316;SDS011;31053;55.870;37.592;2022-08-25T15:13:07;5.13;;;3.33;;
45316;SDS011;31053;55.870;37.592;2022-08-25T15:16:35;6.83;;;3.93;;
45316;SDS011;31053;55.870;37.592;2022-08-25T15:19:39;10.98;;;6.22;;
45316;SDS011;31053;55.870;37.592;2022-08-25T15:22:44;5.63;;;5.00;;
45316;SDS011;31053;55.870;37.592;2022-08-25T15:25:51;9.05;;;4.32;;
45316;SDS011;31053;55.870;37.592;2022-08-25T15:29:00;11.35;;;4.40;;
45316;SDS011;31053;55.870;37.592;2022-08-25T15:32:20;8.77;;;4.18;;
45316;SDS011;31053;55.870;37.592;2022-08-25T15:35:26;8.73;;;4.18;;
45316;SDS011;31053;55.870;37.592;2022-08-25T15:38:32;6.82;;;4.25;;
45316;SDS011;31053;55.870;37.592;2022-08-25T15:41:38;6.05;;;3.85;;
45316;SDS011;31053;55.870;37.592;2022-08-25T15:47:48;17.85;;;4.10;;
45316;SDS011;31053;55.870;37.592;2022-08-25T15:50:52;11.27;;;4.55;;
45316;SDS011;31053;55.870;37.592;2022-08-25T15:53:58;6.03;;;3.47;;
45316;SDS011;31053;55.870;37.592;2022-08-25T15:57:06;8.50;;;4.13;;
45316;SDS011;31053;55.870;37.592;2022-08-25T16:00:11;8.50;;;4.03;;
45316;SDS011;31053;55.870;37.592;2022-08-25T16:03:17;20.88;;;4.90;;
45316;SDS011;31053;55.870;37.592;2022-08-25T16:06:25;9.80;;;5.22;;
45316;SDS011;31053;55.870;37.592;2022-08-25T16:09:30;7.38;;;4.22;;
45316;SDS011;31053;55.870;37.592;2022-08-25T16:12:36;8.18;;;4.22;;
45316;SDS011;31053;55.870;37.592;2022-08-25T16:15:47;7.32;;;4.63;;
45316;SDS011;31053;55.870;37.592;2022-08-25T16:18:56;7.97;;;4.47;;
45316;SDS011;31053;55.870;37.592;2022-08-25T16:22:05;9.10;;;5.65;;
45316;SDS011;31053;55.870;37.592;2022-08-25T16:25:13;14.43;;;6.32;;
45316;SDS011;31053;55.870;37.592;2022-08-25T16:28:21;13.35;;;6.07;;
45316;SDS011;31053;55.870;37.592;2022-08-25T16:31:26;7.38;;;5.00;;
45316;SDS011;31053;55.870;37.592;2022-08-25T16:34:35;10.70;;;5.38;;
45316;SDS011;31053;55.870;37.592;2022-08-25T16:37:46;15.05;;;5.20;;
45316;SDS011;31053;55.870;37.592;2022-08-25T16:40:53;10.40;;;5.80;;
45316;SDS011;31053;55.870;37.592;2022-08-25T16:43:59;11.82;;;6.55;;
45316;SDS011;31053;55.870;37.592;2022-08-25T16:47:21;19.13;;;6.50;;
45316;SDS011;31053;55.870;37.592;2022-08-25T16:50:26;24.08;;;7.25;;
45316;SDS011;31053;55.870;37.592;2022-08-25T16:53:34;13.55;;;7.32;;
45316;SDS011;31053;55.870;37.592;2022-08-25T16:56:58;18.83;;;8.30;;
45316;SDS011;31053;55.870;37.592;2022-08-25T17:00:05;16.50;;;7.63;;
45316;SDS011;31053;55.870;37.592;2022-08-25T17:03:13;12.45;;;7.82;;
45316;SDS011;31053;55.870;37.592;2022-08-25T17:06:18;10.80;;;7.05;;
45316;SDS011;31053;55.870;37.592;2022-08-25T17:09:23;12.70;;;7.07;;
45316;SDS011;31053;55.870;37.592;2022-08-25T17:12:27;15.25;;;7.15;;
45316;SDS011;31053;55.870;37.592;2022-08-25T17:15:32;11.68;;;6.75;;
45316;SDS011;31053;55.870;37.592;2022-08-25T17:18:37;16.10;;;7.78;;
45316;SDS011;31053;55.870;37.592;2022-08-25T17:21:42;13.23;;;7.40;;
45316;SDS011;31053;55.870;37.592;2022-08-25T17:24:49;13.45;;;7.65;;
45316;SDS011;31053;55.870;37.592;2022-08-25T17:27:53;21.33;;;8.32;;
45316;SDS011;31053;55.870;37.592;2022-08-25T17:30:58;18.15;;;8.07;;
45316;SDS011;31053;55.870;37.592;2022-08-25T17:34:05;19.63;;;7.75;;
45316;SDS011;31053;55.870;37.592;2022-08-25T17:37:11;14.05;;;6.90;;
45316;SDS011;31053;55.870;37.592;2022-08-25T17:40:15;12.38;;;6.20;;
45316;SDS011;31053;55.870;37.592;2022-08-25T17:43:20;11.73;;;8.70;;
45316;SDS011;31053;55.870;37.592;2022-08-25T17:46:26;16.38;;;8.15;;
45316;SDS011;31053;55.870;37.592;2022-08-25T17:49:40;10.43;;;7.50;;
45316;SDS011;31053;55.870;37.592;2022-08-25T17:52:44;15.18;;;6.63;;
45316;SDS011;31053;55.870;37.592;2022-08-25T17:55:56;16.73;;;7.20;;
45316;SDS011;31053;55.870;37.592;2022-08-25T17:59:05;13.13;;;6.40;;
45316;SDS011;31053;55.870;37.592;2022-08-25T18:02:09;11.38;;;7.35;;
45316;SDS011;31053;55.870;37.592;2022-08-25T18:05:15;11.23;;;7.07;;
45316;SDS011;31053;55.870;37.592;2022-08-25T18:08:20;13.63;;;7.45;;
45316;SDS011;31053;55.870;37.592;2022-08-25T18:11:25;11.00;;;7.13;;
45316;SDS011;31053;55.870;37.592;2022-08-25T18:14:32;13.75;;;6.78;;
45316;SDS011;31053;55.870;37.592;2022-08-25T18:17:37;14.25;;;7.13;;
45316;SDS011;31053;55.870;37.592;2022-08-25T18:20:43;15.20;;;6.93;;
45316;SDS011;31053;55.870;37.592;2022-08-25T18:23:57;13.90;;;7.28;;
45316;SDS011;31053;55.870;37.592;2022-08-25T18:27:02;12.80;;;7.15;;
45316;SDS011;31053;55.870;37.592;2022-08-25T18:30:10;12.05;;;6.35;;
45316;SDS011;31053;55.870;37.592;2022-08-25T18:33:15;13.90;;;6.40;;
45316;SDS011;31053;55.870;37.592;2022-08-25T18:36:22;10.18;;;5.38;;
45316;SDS011;31053;55.870;37.592;2022-08-25T18:39:30;12.13;;;5.88;;
45316;SDS011;31053;55.870;37.592;2022-08-25T18:43:05;16.50;;;7.00;;
45316;SDS011;31053;55.870;37.592;2022-08-25T18:46:10;11.18;;;6.93;;
45316;SDS011;31053;55.870;37.592;2022-08-25T18:49:15;9.05;;;6.35;;
45316;SDS011;31053;55.870;37.592;2022-08-25T18:52:20;13.15;;;7.95;;
45316;SDS011;31053;55.870;37.592;2022-08-25T18:55:27;17.02;;;6.22;;
45316;SDS011;31053;55.870;37.592;2022-08-25T18:58:32;12.18;;;6.75;;
45316;SDS011;31053;55.870;37.592;2022-08-25T19:01:37;9.27;;;6.28;;
45316;SDS011;31053;55.870;37.592;2022-08-25T19:04:52;16.52;;;7.43;;
45316;SDS011;31053;55.870;37.592;2022-08-25T19:07:57;11.07;;;7.10;;
45316;SDS011;31053;55.870;37.592;2022-08-25T19:11:02;13.07;;;7.17;;
45316;SDS011;31053;55.870;37.592;2022-08-25T19:14:14;12.40;;;7.55;;
45316;SDS011;31053;55.870;37.592;2022-08-25T19:18:18;12.80;;;6.75;;
45316;SDS011;31053;55.870;37.592;2022-08-25T19:22:12;12.65;;;7.78;;
45316;SDS011;31053;55.870;37.592;2022-08-25T19:26:13;13.40;;;8.02;;
45316;SDS011;31053;55.870;37.592;2022-08-25T19:30:44;19.48;;;7.40;;
45316;SDS011;31053;55.870;37.592;2022-08-25T19:34:33;16.42;;;7.25;;
45316;SDS011;31053;55.870;37.592;2022-08-25T19:37:46;11.77;;;7.78;;
45316;SDS011;31053;55.870;37.592;2022-08-25T19:40:54;12.55;;;8.63;;
45316;SDS011;31053;55.870;37.592;2022-08-25T19:43:59;16.58;;;9.40;;
45316;SDS011;31053;55.870;37.592;2022-08-25T19:50:10;19.48;;;9.88;;
45316;SDS011;31053;55.870;37.592;2022-08-25T19:53:18;14.32;;;8.45;;
45316;SDS011;31053;55.870;37.592;2022-08-25T19:56:23;18.65;;;10.75;;
45316;SDS011;31053;55.870;37.592;2022-08-25T19:59:33;20.58;;;13.35;;
45316;SDS011;31053;55.870;37.592;2022-08-25T20:02:42;32.67;;;13.70;;
45316;SDS011;31053;55.870;37.592;2022-08-25T20:05:47;19.20;;;9.45;;
45316;SDS011;31053;55.870;37.592;2022-08-25T20:08:52;22.63;;;9.80;;
45316;SDS011;31053;55.870;37.592;2022-08-25T20:11:57;24.88;;;10.75;;
45316;SDS011;31053;55.870;37.592;2022-08-25T20:15:03;17.85;;;10.60;;
45316;SDS011;31053;55.870;37.592;2022-08-25T20:18:10;20.15;;;9.90;;
45316;SDS011;31053;55.870;37.592;2022-08-25T20:21:22;24.88;;;11.07;;
45316;SDS011;31053;55.870;37.592;2022-08-25T20:24:30;18.65;;;11.07;;
45316;SDS011;31053;55.870;37.592;2022-08-25T20:27:56;18.15;;;9.77;;
45316;SDS011;31053;55.870;37.592;2022-08-25T20:31:01;17.38;;;8.80;;
45316;SDS011;31053;55.870;37.592;2022-08-25T20:34:08;16.00;;;9.45;;
45316;SDS011;31053;55.870;37.592;2022-08-25T20:37:16;21.17;;;9.00;;
45316;SDS011;31053;55.870;37.592;2022-08-25T20:40:21;16.20;;;9.13;;